Time;durP1;ratioP1;P1;durP2;ratioP2;P2;SDS_P1;SDS_P2;PMS_P1;PMS_P2;Temp;Humidity;BMP_temperature;BMP_pressure;BME280_temperature;BME280_humidity;BME280_pressure;Samples;Min_cycle;Max_cycle;Signal;HPM_P1;HPM_P2
2023/08/29 00:02:21;;;;;;;;;;;20.40;51.00;;;19.81;51.56;100608.94;12137013;19;20731;-81
2023/08/29 00:06:23;;;;;;;;;;;20.50;51.10;;;19.79;51.24;100597.66;12139108;19;20382;-81
2023/08/29 00:10:25;;;;;;;;;;;20.50;51.00;;;19.77;51.17;100599.66;12136652;19;19950;-81
2023/08/29 00:14:26;;;;;;;;;;;20.50;50.80;;;19.72;51.66;100577.22;12141628;19;20276;-82
2023/08/29 00:18:28;;;;;;;;;;;20.50;51.00;;;19.71;51.39;100580.84;12138187;19;20006;-82
2023/08/29 00:22:29;;;;;;;;;;;20.50;50.80;;;19.63;51.55;100578.88;12138527;19;19915;-82
2023/08/29 00:26:31;;;;;;;;;;;20.50;50.80;;;19.68;51.59;100608.47;12136770;19;19929;-82
2023/08/29 00:30:37;;;;;;;;;;;20.40;50.80;;;19.54;51.46;100582.44;12137415;19;20044;-81
2023/08/29 00:34:38;;;;;;;;;;;20.40;50.80;;;19.60;51.33;100592.44;12135589;19;19918;-82
2023/08/29 00:38:40;;;;;;;;;;;20.30;51.00;;;19.58;51.79;100574.06;12135509;19;19939;-81
2023/08/29 00:42:42;;;;;;;;;;;20.30;51.00;;;19.58;51.81;100575.88;12132769;19;20244;-81
2023/08/29 00:46:45;;;;;;;;;;;20.30;51.00;;;19.62;51.62;100577.22;12135307;19;20450;-81
2023/08/29 00:50:47;;;;;;;;;;;20.30;51.00;;;19.58;51.49;100573.22;12134948;19;19927;-81
2023/08/29 00:54:49;;;;;;;;;;;20.30;51.10;;;19.54;51.56;100567.38;12135734;19;20010;-82
2023/08/29 00:58:52;;;;;;;;;;;20.30;51.00;;;19.51;51.62;100561.53;12133799;19;19952;-81
2023/08/29 01:02:55;;;;;;;;;;;20.30;50.90;;;19.40;51.59;100544.03;12132930;19;21019;-82
2023/08/29 01:06:57;;;;;;;;;;;20.30;51.00;;;19.52;51.74;100568.50;12136179;19;20267;-82
2023/08/29 01:11:48;;;;;;;;;;;20.20;51.00;;;19.52;51.67;100563.19;12133951;19;20674;-82
2023/08/29 01:15:52;;;;;;;;;;;20.30;51.50;;;19.53;51.59;100564.88;12137696;19;20808;-81
2023/08/29 01:19:56;;;;;;;;;;;20.30;51.10;;;19.48;51.86;100561.84;12144412;19;20251;-82
2023/08/29 01:24:23;;;;;;;;;;;20.30;51.10;;;19.58;51.95;100578.53;12143529;19;19936;-82
2023/08/29 01:28:25;;;;;;;;;;;20.30;51.10;;;19.59;51.71;100582.81;12144892;19;20318;-81
2023/08/29 01:32:27;;;;;;;;;;;20.30;51.10;;;19.50;52.17;100558.06;12142016;19;19915;-82
2023/08/29 01:36:42;;;;;;;;;;;20.30;51.20;;;19.62;51.96;100579.88;12146009;19;20261;-82
2023/08/29 01:40:44;;;;;;;;;;;20.40;51.30;;;19.60;51.95;100590.59;12146949;19;19922;-81
2023/08/29 01:44:46;;;;;;;;;;;20.40;51.20;;;19.59;51.92;100574.88;12142751;19;19915;-81
2023/08/29 01:48:49;;;;;;;;;;;20.40;51.30;;;19.54;51.92;100555.94;12145162;19;19929;-81
2023/08/29 01:52:52;;;;;;;;;;;20.40;51.20;;;19.52;52.11;100556.06;12141765;19;19915;-82
2023/08/29 01:56:56;;;;;;;;;;;20.30;51.20;;;19.54;52.13;100564.72;12138313;19;19923;-82
2023/08/29 02:00:58;;;;;;;;;;;20.30;51.10;;;19.46;52.09;100565.44;12139332;19;19922;-82
2023/08/29 02:05:02;;;;;;;;;;;20.30;51.30;;;19.46;52.18;100573.38;12135785;19;19926;-81
2023/08/29 02:09:04;;;;;;;;;;;20.30;51.20;;;19.39;51.82;100558.25;12138998;19;20266;-82
2023/08/29 02:13:09;;;;;;;;;;;20.20;51.30;;;19.29;52.02;100545.03;12136586;19;20298;-82
2023/08/29 02:17:11;;;;;;;;;;;20.20;51.40;;;19.27;51.95;100547.00;12138151;19;20805;-81
2023/08/29 02:21:13;;;;;;;;;;;20.10;51.30;;;19.34;52.28;100561.31;12133798;19;19986;-82
2023/08/29 02:25:14;;;;;;;;;;;20.10;51.80;;;19.33;52.15;100554.34;12133694;19;20766;-82
2023/08/29 02:29:15;;;;;;;;;;;20.10;51.50;;;19.24;52.33;100539.34;12132647;19;19918;-82
2023/08/29 02:33:18;;;;;;;;;;;20.10;51.50;;;19.33;52.03;100551.69;12135162;19;19927;-82
2023/08/29 02:37:20;;;;;;;;;;;20.10;51.60;;;19.24;52.25;100536.69;12137259;19;20291;-81
2023/08/29 02:41:22;;;;;;;;;;;20.00;51.60;;;19.27;52.17;100540.88;12136773;19;20042;-82
2023/08/29 02:45:23;;;;;;;;;;;20.10;51.70;;;19.24;52.26;100534.88;12143291;19;19926;-82
2023/08/29 02:49:25;;;;;;;;;;;20.10;51.70;;;19.29;52.50;100523.84;12142212;19;19937;-82
2023/08/29 02:53:31;;;;;;;;;;;20.20;51.80;;;19.37;52.09;100533.72;12133565;19;19933;-83
2023/08/29 02:57:32;;;;;;;;;;;20.10;51.80;;;19.39;52.46;100537.91;12139945;19;20360;-82
2023/08/29 03:01:34;;;;;;;;;;;20.20;51.80;;;19.40;52.29;100536.06;12136775;19;19956;-82
2023/08/29 03:06:31;;;;;;;;;;;20.10;51.70;;;19.45;52.48;100528.53;12138577;19;19923;-82
2023/08/29 03:10:36;;;;;;;;;;;20.20;51.80;;;19.39;52.26;100500.81;12133441;19;20906;-82
2023/08/29 03:14:38;;;;;;;;;;;20.20;51.80;;;19.44;52.43;100498.56;12138427;19;19934;-82
2023/08/29 03:18:41;;;;;;;;;;;20.20;51.80;;;19.37;52.42;100472.81;12137511;19;19931;-82
2023/08/29 03:22:43;;;;;;;;;;;20.20;51.90;;;19.37;52.50;100463.06;12136627;19;20760;-82
2023/08/29 03:26:44;;;;;;;;;;;20.20;51.80;;;19.40;52.44;100467.22;12140978;19;19998;-82
2023/08/29 03:30:46;;;;;;;;;;;20.20;51.70;;;19.40;52.46;100470.69;12140201;19;20286;-82
2023/08/29 03:34:53;;;;;;;;;;;20.20;51.70;;;19.38;52.47;100472.66;12140098;19;20284;-83
2023/08/29 03:38:55;;;;;;;;;;;20.20;51.80;;;19.37;52.39;100460.41;12136404;19;19927;-82
2023/08/29 03:42:56;;;;;;;;;;;20.20;51.80;;;19.40;52.30;100460.09;12136204;19;19929;-82
2023/08/29 03:46:58;;;;;;;;;;;20.20;51.80;;;19.38;52.48;100459.41;12139376;19;19919;-82
2023/08/29 03:51:06;;;;;;;;;;;20.20;51.80;;;19.33;52.48;100461.66;12135714;19;20498;-82
2023/08/29 03:55:54;;;;;;;;;;;20.20;51.80;;;19.38;52.75;100461.22;12136620;19;19998;-82
2023/08/29 03:59:56;;;;;;;;;;;20.20;51.80;;;19.34;52.79;100460.69;12141209;19;19915;-82
2023/08/29 04:03:58;;;;;;;;;;;20.10;51.80;;;19.31;52.60;100445.13;12135455;19;20720;-82
2023/08/29 04:07:59;;;;;;;;;;;20.20;51.90;;;19.27;52.62;100437.59;12135610;19;20199;-82
2023/08/29 04:12:01;;;;;;;;;;;20.10;51.90;;;19.30;52.87;100447.91;12136115;19;19926;-82
2023/08/29 04:16:03;;;;;;;;;;;20.20;51.90;;;19.35;52.87;100454.41;12137643;19;19937;-83
2023/08/29 04:20:09;;;;;;;;;;;20.10;52.00;;;19.34;52.71;100468.66;12137968;19;19923;-82
2023/08/29 04:24:11;;;;;;;;;;;20.10;52.00;;;19.27;52.77;100445.56;12138827;19;20722;-82
2023/08/29 04:28:19;;;;;;;;;;;20.10;51.90;;;19.27;52.88;100454.31;12138734;19;20287;-82
2023/08/29 04:32:21;;;;;;;;;;;20.10;52.00;;;19.24;52.50;100449.31;12129986;19;19930;-82
2023/08/29 04:36:23;;;;;;;;;;;20.10;51.90;;;19.05;52.47;100420.31;12135402;19;19926;-82
2023/08/29 04:40:24;;;;;;;;;;;20.10;51.80;;;19.00;52.60;100432.16;12133350;19;20448;-82
2023/08/29 04:44:26;;;;;;;;;;;20.10;52.10;;;19.11;52.90;100448.84;12132079;19;20263;-82
2023/08/29 04:48:28;;;;;;;;;;;20.00;52.20;;;18.91;52.76;100422.47;12134020;19;20027;-83
2023/08/29 04:52:30;;;;;;;;;;;20.00;52.30;;;19.08;53.03;100443.84;12141874;19;19927;-82
2023/08/29 04:56:32;;;;;;;;;;;20.00;52.10;;;19.20;53.12;100461.22;12149386;19;20357;-82
2023/08/29 05:00:34;;;;;;;;;;;20.00;52.20;;;19.27;52.91;100459.63;12142311;19;20377;-83
2023/08/29 05:04:36;;;;;;;;;;;20.00;52.30;;;19.30;53.16;100454.03;12140277;19;20574;-82
2023/08/29 05:08:37;;;;;;;;;;;20.00;52.20;;;19.34;53.04;100459.88;12143873;19;20712;-82
2023/08/29 05:12:41;;;;;;;;;;;20.10;52.30;;;19.33;52.88;100459.03;12137788;19;19942;-83
2023/08/29 05:16:42;;;;;;;;;;;20.10;52.20;;;19.40;53.21;100477.81;12136897;19;19923;-83
2023/08/29 05:20:44;;;;;;;;;;;20.10;52.20;;;19.35;53.08;100450.94;12127834;19;19923;-83
2023/08/29 05:24:46;;;;;;;;;;;20.20;52.40;;;19.41;53.22;100459.09;12119445;19;19923;-82
2023/08/29 05:28:48;;;;;;;;;;;20.20;52.30;;;19.42;53.12;100449.38;12130014;19;19922;-83
2023/08/29 05:32:49;;;;;;;;;;;20.20;52.30;;;19.46;52.96;100450.72;12127701;19;19926;-83
2023/08/29 05:36:51;;;;;;;;;;;20.30;52.40;;;19.34;53.10;100420.16;12131343;19;19944;-83
2023/08/29 05:40:53;;;;;;;;;;;20.30;52.40;;;19.50;53.11;100448.63;12129657;19;20730;-82
2023/08/29 05:44:55;;;;;;;;;;;20.30;52.40;;;19.50;53.08;100457.41;12129967;19;19933;-83
2023/08/29 05:48:59;;;;;;;;;;;20.30;52.60;;;19.52;53.11;100449.28;12130651;19;20346;-84
2023/08/29 05:53:00;;;;;;;;;;;20.30;52.40;;;19.54;53.17;100450.81;12126837;19;20750;-83
2023/08/29 05:57:03;;;;;;;;;;;20.40;52.40;;;19.52;52.90;100457.25;12136740;19;20309;-83
2023/08/29 06:01:06;;;;;;;;;;;20.40;52.50;;;19.39;52.88;100461.09;12129716;19;19930;-83
2023/08/29 06:05:09;;;;;;;;;;;20.30;52.80;;;19.52;53.28;100478.44;12126941;19;19933;-83
2023/08/29 06:09:10;;;;;;;;;;;20.40;52.40;;;19.58;53.18;100488.44;12131632;19;20379;-82
2023/08/29 06:13:12;;;;;;;;;;;20.40;52.40;;;19.56;53.36;100472.69;12131052;19;19923;-83
2023/08/29 06:17:14;;;;;;;;;;;20.40;52.50;;;19.55;53.46;100457.78;12129376;19;19942;-83
2023/08/29 06:21:15;;;;;;;;;;;20.40;52.70;;;19.58;53.28;100456.66;12124087;19;19915;-84
2023/08/29 06:25:17;;;;;;;;;;;20.40;52.60;;;19.61;53.38;100469.59;12128865;19;19918;-84
2023/08/29 06:29:19;;;;;;;;;;;20.40;52.70;;;19.57;53.07;100476.16;12134626;19;19919;-83
2023/08/29 06:33:20;;;;;;;;;;;20.40;52.80;;;19.60;53.18;100487.28;12116635;19;19933;-84
2023/08/29 06:37:22;;;;;;;;;;;20.40;52.70;;;19.50;53.33;100467.19;12121762;19;19949;-84
2023/08/29 06:41:24;;;;;;;;;;;20.40;52.70;;;19.30;53.59;100440.78;12126503;19;19911;-83
2023/08/29 06:45:26;;;;;;;;;;;20.40;52.70;;;19.62;53.12;100495.09;12126467;19;19938;-83
2023/08/29 06:49:28;;;;;;;;;;;20.40;52.80;;;19.63;53.37;100504.72;12124767;19;19919;-83
2023/08/29 06:53:29;;;;;;;;;;;20.40;53.00;;;19.62;53.28;100511.00;12115407;19;19943;-83
2023/08/29 06:57:31;;;;;;;;;;;20.40;52.80;;;19.60;53.54;100523.56;12124018;19;19926;-84
2023/08/29 07:01:32;;;;;;;;;;;20.40;52.80;;;19.63;53.47;100545.31;12121005;19;19937;-83
2023/08/29 07:05:34;;;;;;;;;;;20.40;52.90;;;19.62;53.17;100537.50;12124481;19;19926;-83
2023/08/29 07:09:36;;;;;;;;;;;20.40;52.80;;;19.57;53.68;100540.56;12125650;19;19950;-84
2023/08/29 07:13:38;;;;;;;;;;;20.40;52.80;;;19.65;53.62;100563.69;12122938;19;19933;-84
2023/08/29 07:17:40;;;;;;;;;;;20.40;52.80;;;19.61;53.43;100555.22;12125855;19;20860;-84
2023/08/29 07:21:41;;;;;;;;;;;20.40;52.80;;;19.65;53.54;100567.16;12121574;19;19964;-84
2023/08/29 07:25:45;;;;;;;;;;;20.50;52.80;;;19.62;53.54;100570.09;12124004;19;20735;-83
2023/08/29 07:29:46;;;;;;;;;;;20.50;52.80;;;19.69;53.34;100588.94;12124285;19;19923;-83
2023/08/29 07:33:48;;;;;;;;;;;20.50;52.90;;;19.70;53.34;100577.34;12125261;19;19938;-84
2023/08/29 07:37:51;;;;;;;;;;;20.50;52.90;;;19.71;53.50;100572.88;12123112;19;19943;-84
2023/08/29 07:41:54;;;;;;;;;;;20.50;53.00;;;19.65;53.62;100551.25;12123451;19;19950;-84
2023/08/29 07:45:55;;;;;;;;;;;20.50;53.10;;;19.74;53.60;100568.16;12122876;19;19923;-84
2023/08/29 07:49:56;;;;;;;;;;;20.50;53.30;;;19.74;53.74;100559.34;12118895;19;19937;-85
2023/08/29 07:53:58;;;;;;;;;;;20.50;53.40;;;19.71;53.75;100546.38;12124069;19;20005;-84
2023/08/29 07:58:01;;;;;;;;;;;20.50;53.30;;;19.73;53.40;100552.38;12121134;19;19934;-84
2023/08/29 08:02:02;;;;;;;;;;;20.50;53.70;;;19.67;53.74;100549.34;12118841;19;19915;-84
2023/08/29 08:06:04;;;;;;;;;;;20.50;53.20;;;19.73;53.46;100555.03;12120761;19;20973;-83
2023/08/29 08:10:07;;;;;;;;;;;20.50;53.30;;;19.72;53.94;100553.38;12120343;19;19923;-83
2023/08/29 08:14:09;;;;;;;;;;;20.50;53.50;;;19.70;53.63;100545.56;12121537;19;19923;-83
2023/08/29 08:18:10;;;;;;;;;;;20.50;53.60;;;19.66;54.01;100533.59;12116959;19;19970;-84
2023/08/29 08:22:12;;;;;;;;;;;20.50;53.60;;;19.74;53.78;100546.94;12118194;19;20948;-83
2023/08/29 08:26:14;;;;;;;;;;;20.50;54.10;;;19.70;53.70;100539.44;12115400;19;20167;-82
2023/08/29 08:30:16;;;;;;;;;;;20.50;53.70;;;19.74;54.03;100548.75;12116384;19;20284;-82
2023/08/29 08:34:18;;;;;;;;;;;20.50;53.70;;;19.71;53.83;100549.88;12125708;19;19938;-83
2023/08/29 08:38:19;;;;;;;;;;;20.50;53.80;;;19.74;54.00;100551.38;12115935;19;19941;-83
2023/08/29 08:42:21;;;;;;;;;;;20.50;53.60;;;19.72;54.03;100535.66;12115774;19;19939;-82
2023/08/29 08:46:23;;;;;;;;;;;20.50;53.60;;;19.74;53.71;100533.69;12120180;19;19946;-82
2023/08/29 08:50:25;;;;;;;;;;;20.50;53.80;;;19.71;54.14;100526.03;12121491;19;19993;-83
2023/08/29 08:54:27;;;;;;;;;;;20.50;54.20;;;19.76;53.89;100539.66;12118366;19;19919;-83
2023/08/29 08:58:29;;;;;;;;;;;20.50;53.90;;;19.74;54.10;100546.09;12117606;19;19923;-83
2023/08/29 09:02:31;;;;;;;;;;;20.50;54.30;;;19.72;54.04;100533.00;12112811;19;19955;-82
2023/08/29 09:06:34;;;;;;;;;;;20.50;53.70;;;19.80;53.91;100537.56;12118417;19;19991;-82
2023/08/29 09:10:39;;;;;;;;;;;20.50;53.70;;;19.76;53.89;100531.72;12118102;19;19923;-83
2023/08/29 09:14:41;;;;;;;;;;;20.60;53.90;;;19.82;53.94;100523.19;12120581;19;19927;-82
2023/08/29 09:18:44;;;;;;;;;;;20.60;54.30;;;19.83;54.23;100514.25;12119403;19;20265;-83
2023/08/29 09:22:46;;;;;;;;;;;20.60;55.30;;;19.76;54.24;100507.03;12118472;19;19923;-82
2023/08/29 09:26:48;;;;;;;;;;;20.60;55.10;;;19.85;54.00;100517.59;12119059;19;19918;-82
2023/08/29 09:30:50;;;;;;;;;;;20.60;55.20;;;19.78;54.00;100502.44;12119644;19;19915;-83
2023/08/29 09:34:57;;;;;;;;;;;20.60;54.70;;;19.84;53.98;100515.06;12116221;19;19946;-83
2023/08/29 09:38:58;;;;;;;;;;;20.60;54.50;;;19.82;54.05;100527.63;12127883;19;20693;-82
2023/08/29 09:43:02;;;;;;;;;;;20.60;55.00;;;19.80;53.94;100514.53;12127826;19;19923;-83
2023/08/29 09:47:05;;;;;;;;;;;20.70;54.60;;;19.81;54.30;100502.94;12132057;19;20659;-82
2023/08/29 09:51:08;;;;;;;;;;;20.70;54.40;;;19.82;54.29;100504.63;12130618;19;19955;-82
2023/08/29 09:55:11;;;;;;;;;;;20.70;54.60;;;19.96;53.98;100528.97;12133623;19;19923;-83
2023/08/29 09:59:16;;;;;;;;;;;20.70;54.30;;;19.92;54.03;100528.41;12130338;19;19963;-83
2023/08/29 10:03:18;;;;;;;;;;;20.70;53.90;;;19.95;54.17;100532.56;12126107;19;19922;-83
2023/08/29 10:07:42;;;;;;;;;;;20.80;54.00;;;19.86;54.13;100487.44;12133193;19;19926;-83
2023/08/29 10:11:44;;;;;;;;;;;20.80;53.80;;;19.93;54.27;100486.81;12131828;19;19941;-83
2023/08/29 10:15:47;;;;;;;;;;;20.80;53.80;;;19.95;54.49;100483.03;12128917;19;19943;-83
2023/08/29 10:19:50;;;;;;;;;;;20.80;54.00;;;20.06;54.30;100492.59;12130285;19;19937;-83
2023/08/29 10:23:53;;;;;;;;;;;20.90;54.00;;;20.03;54.16;100476.97;12125942;19;19923;-83
2023/08/29 10:27:55;;;;;;;;;;;20.90;54.30;;;19.99;54.19;100470.34;12128992;19;19923;-83
2023/08/29 10:31:58;;;;;;;;;;;20.90;53.90;;;20.12;53.94;100492.00;12127867;19;19923;-83
2023/08/29 10:36:01;;;;;;;;;;;20.90;53.90;;;20.14;54.25;100486.53;12132050;19;19923;-84
2023/08/29 10:40:11;;;;;;;;;;;20.90;53.80;;;20.19;54.42;100492.19;12132620;19;19934;-84
2023/08/29 10:44:24;;;;;;;;;;;21.00;53.90;;;20.19;54.41;100498.34;12132684;19;19926;-83
2023/08/29 10:48:28;;;;;;;;;;;21.00;53.70;;;20.22;54.41;100507.81;12130598;19;19951;-83
2023/08/29 10:52:38;;;;;;;;;;;21.00;54.10;;;20.23;54.39;100493.59;12127858;19;19923;-83
2023/08/29 10:56:43;;;;;;;;;;;21.00;54.00;;;20.22;54.20;100495.38;12128985;19;19915;-84
2023/08/29 11:00:44;;;;;;;;;;;21.00;53.60;;;20.27;54.39;100501.06;12127261;19;19922;-83
2023/08/29 11:04:46;;;;;;;;;;;21.10;53.70;;;20.21;54.17;100482.28;12123178;19;20770;-83
2023/08/29 11:08:48;;;;;;;;;;;21.10;53.60;;;20.25;54.52;100486.28;12129223;19;20438;-83
2023/08/29 11:13:09;;;;;;;;;;;21.10;53.70;;;20.39;54.17;100495.50;12121267;19;19919;-83
2023/08/29 11:17:22;;;;;;;;;;;21.20;53.70;;;20.39;54.38;100483.09;12127128;19;21293;-83
2023/08/29 11:21:24;;;;;;;;;;;21.20;53.50;;;20.45;54.44;100481.66;12125572;19;19915;-83
2023/08/29 11:25:26;;;;;;;;;;;21.20;53.60;;;20.42;54.32;100466.03;12123694;19;19922;-83
2023/08/29 11:29:36;;;;;;;;;;;21.30;53.50;;;20.40;54.61;100457.41;12121420;19;20690;-83
2023/08/29 11:33:38;;;;;;;;;;;21.30;53.90;;;20.53;54.70;100473.75;12124464;19;19940;-83
2023/08/29 11:37:39;;;;;;;;;;;21.40;53.70;;;20.54;54.28;100470.13;12125619;19;20271;-83
2023/08/29 11:41:43;;;;;;;;;;;21.40;53.80;;;20.59;54.16;100474.97;12124250;19;20728;-83
2023/08/29 11:45:45;;;;;;;;;;;21.40;53.50;;;20.48;54.30;100452.97;12123975;19;20306;-83
2023/08/29 11:49:51;;;;;;;;;;;21.40;53.40;;;20.55;54.68;100467.31;12133444;19;20585;-83
2023/08/29 11:53:53;;;;;;;;;;;21.40;53.50;;;20.42;54.48;100442.16;12134743;19;19923;-83
2023/08/29 11:57:57;;;;;;;;;;;21.40;53.20;;;20.51;54.27;100460.63;12133747;19;20291;-83
2023/08/29 12:01:59;;;;;;;;;;;21.40;53.30;;;20.52;54.48;100457.00;12126402;19;20785;-83
2023/08/29 12:06:03;;;;;;;;;;;21.40;53.20;;;20.60;54.40;100469.50;12129878;19;20267;-83
2023/08/29 12:10:14;;;;;;;;;;;21.40;53.20;;;20.57;54.41;100455.72;12131281;19;19927;-82
2023/08/29 12:14:16;;;;;;;;;;;21.40;53.30;;;20.38;54.10;100425.72;12134426;19;20410;-83
2023/08/29 12:18:22;;;;;;;;;;;21.40;53.40;;;20.65;54.40;100466.38;12136778;19;20175;-83
2023/08/29 12:22:31;;;;;;;;;;;21.40;53.30;;;20.64;54.15;100478.81;12132773;19;20373;-82
2023/08/29 12:26:33;;;;;;;;;;;21.50;53.20;;;20.66;54.34;100474.19;12128875;19;19915;-83
2023/08/29 12:30:34;;;;;;;;;;;21.50;53.10;;;20.64;54.17;100465.56;12120113;19;19930;-83
2023/08/29 12:34:37;;;;;;;;;;;21.50;53.10;;;20.69;54.07;100468.56;12134287;19;20036;-83
2023/08/29 12:38:38;;;;;;;;;;;21.60;53.10;;;20.75;54.11;100459.97;12133728;19;19918;-83
2023/08/29 12:42:41;;;;;;;;;;;21.60;53.10;;;20.73;54.16;100451.34;12133303;19;20481;-83
2023/08/29 12:46:42;;;;;;;;;;;21.60;53.10;;;20.84;54.25;100470.63;12130538;19;20271;-83
2023/08/29 12:50:45;;;;;;;;;;;21.60;53.10;;;20.41;54.46;100401.53;12136354;19;19940;-83
2023/08/29 12:54:47;;;;;;;;;;;21.60;53.10;;;20.85;54.33;100470.50;12132375;19;19923;-83
2023/08/29 12:58:50;;;;;;;;;;;21.70;53.30;;;20.75;54.23;100467.94;12137393;19;20290;-83
2023/08/29 13:02:52;;;;;;;;;;;21.70;53.10;;;20.72;54.29;100480.69;12127565;19;19938;-84
2023/08/29 13:06:53;;;;;;;;;;;21.70;53.20;;;20.60;53.99;100474.78;12131250;19;20362;-83
2023/08/29 13:10:55;;;;;;;;;;;21.50;53.00;;;20.60;54.15;100485.41;12134793;19;20564;-83
2023/08/29 13:14:57;;;;;;;;;;;21.50;52.80;;;20.55;54.27;100466.50;12147550;19;19919;-83
2023/08/29 13:18:59;;;;;;;;;;;21.40;53.00;;;20.55;54.17;100469.16;12143870;19;20949;-83
2023/08/29 13:23:01;;;;;;;;;;;21.30;52.90;;;20.56;54.11;100470.81;12130562;19;19929;-83
2023/08/29 13:27:04;;;;;;;;;;;21.30;52.90;;;20.56;54.33;100470.81;12147412;19;19923;-82
2023/08/29 13:31:07;;;;;;;;;;;21.30;53.00;;;20.53;54.21;100457.81;12144225;19;19919;-82
2023/08/29 13:35:11;;;;;;;;;;;21.30;53.10;;;20.57;54.34;100464.50;12141872;19;20045;-82
2023/08/29 13:39:12;;;;;;;;;;;21.30;53.00;;;20.59;54.32;100459.88;12149009;19;20267;-83
2023/08/29 13:43:14;;;;;;;;;;;21.30;53.10;;;20.53;54.11;100458.69;12146906;19;19934;-82
2023/08/29 13:47:15;;;;;;;;;;;21.30;52.90;;;20.60;53.99;100460.69;12148249;19;19923;-82
2023/08/29 13:51:17;;;;;;;;;;;21.30;53.00;;;20.52;54.19;100451.69;12144098;19;19934;-83
2023/08/29 13:55:19;;;;;;;;;;;21.30;53.00;;;20.61;54.30;100452.59;12148534;19;19952;-83
2023/08/29 13:59:20;;;;;;;;;;;21.40;53.00;;;20.59;53.91;100448.44;12154032;19;20338;-83
2023/08/29 14:03:21;;;;;;;;;;;21.40;53.10;;;20.65;54.31;100442.50;12141505;19;20359;-82
2023/08/29 14:07:23;;;;;;;;;;;21.40;53.00;;;20.66;54.08;100452.97;12149782;19;19923;-82
2023/08/29 14:11:24;;;;;;;;;;;21.50;53.10;;;20.72;54.44;100468.25;12141216;19;19926;-83
2023/08/29 14:15:27;;;;;;;;;;;21.40;53.00;;;20.74;54.19;100481.38;12135835;19;20888;-83
2023/08/29 14:19:30;;;;;;;;;;;21.50;53.00;;;20.75;54.14;100473.25;12135314;19;19939;-83
2023/08/29 14:23:32;;;;;;;;;;;21.50;53.00;;;20.75;54.38;100467.94;12132088;19;20273;-83
2023/08/29 14:27:33;;;;;;;;;;;21.60;53.00;;;20.71;54.14;100458.63;12132574;19;20331;-83
2023/08/29 14:31:35;;;;;;;;;;;21.60;53.00;;;20.75;53.88;100459.16;12138296;19;20344;-83
2023/08/29 14:35:37;;;;;;;;;;;21.60;53.00;;;20.72;53.87;100460.28;12136768;19;20397;-83
2023/08/29 14:39:40;;;;;;;;;;;21.50;53.00;;;20.70;53.90;100466.75;12136716;19;19927;-83
2023/08/29 14:43:41;;;;;;;;;;;21.50;53.00;;;20.64;54.17;100468.22;12143033;19;19949;-83
2023/08/29 14:47:43;;;;;;;;;;;21.40;53.10;;;20.54;54.15;100464.81;12140125;19;19918;-82
2023/08/29 14:51:46;;;;;;;;;;;21.40;53.30;;;20.33;54.15;100450.06;12135552;19;19926;-83
2023/08/29 14:55:54;;;;;;;;;;;21.30;53.10;;;20.34;54.17;100475.59;12140456;19;19927;-82
2023/08/29 14:59:57;;;;;;;;;;;21.20;52.80;;;20.22;53.91;100463.56;12134233;19;19927;-83
2023/08/29 15:03:58;;;;;;;;;;;21.10;53.00;;;20.20;53.94;100476.16;12136738;19;19919;-83
2023/08/29 15:07:59;;;;;;;;;;;21.00;53.10;;;20.09;53.96;100468.41;12133423;19;20711;-82
2023/08/29 15:12:03;;;;;;;;;;;21.00;53.30;;;20.14;54.30;100468.78;12132047;19;20785;-82
2023/08/29 15:16:04;;;;;;;;;;;20.90;53.60;;;20.02;54.17;100460.25;12137944;19;19933;-82
2023/08/29 15:20:09;;;;;;;;;;;20.90;53.70;;;20.04;54.39;100462.75;12139416;19;19918;-82
2023/08/29 15:24:11;;;;;;;;;;;20.80;53.70;;;20.08;54.04;100474.72;12138655;19;19923;-83
2023/08/29 15:28:13;;;;;;;;;;;20.80;53.60;;;20.05;54.14;100464.41;12137796;19;21060;-82
2023/08/29 15:32:14;;;;;;;;;;;20.80;53.60;;;20.10;54.17;100473.56;12136208;19;19930;-82
2023/08/29 15:36:16;;;;;;;;;;;20.80;53.80;;;20.09;54.43;100457.81;12134219;19;20323;-82
2023/08/29 15:40:17;;;;;;;;;;;20.80;53.70;;;20.14;54.31;100460.84;12133923;19;20278;-83
2023/08/29 15:44:19;;;;;;;;;;;20.80;53.90;;;20.05;54.30;100443.22;12134389;19;20956;-83
2023/08/29 15:48:20;;;;;;;;;;;20.90;53.90;;;20.06;54.14;100437.78;12129358;19;19926;-82
2023/08/29 15:52:22;;;;;;;;;;;20.90;54.20;;;20.16;54.45;100456.22;12126964;19;19919;-82
2023/08/29 15:56:23;;;;;;;;;;;20.90;53.90;;;20.18;54.29;100454.25;12129878;19;20345;-82
2023/08/29 16:00:25;;;;;;;;;;;20.90;54.00;;;20.20;54.55;100462.91;12129866;19;19926;-82
2023/08/29 16:04:26;;;;;;;;;;;20.90;53.90;;;20.20;54.23;100462.03;12133224;19;19923;-82
2023/08/29 16:08:28;;;;;;;;;;;20.90;53.90;;;20.19;54.44;100455.09;12131361;19;19925;-82
2023/08/29 16:12:31;;;;;;;;;;;20.90;53.80;;;20.21;54.41;100467.19;12132354;19;20788;-82
2023/08/29 16:16:36;;;;;;;;;;;20.90;53.90;;;20.17;54.54;100457.91;12127373;19;22016;-81
2023/08/29 16:20:41;;;;;;;;;;;20.90;53.90;;;20.16;54.66;100455.41;12132993;19;19926;-82
2023/08/29 16:24:44;;;;;;;;;;;20.90;53.90;;;20.20;54.69;100465.56;12134887;19;20742;-83
2023/08/29 16:28:45;;;;;;;;;;;20.90;53.90;;;20.09;54.76;100442.75;12139190;19;19926;-83
2023/08/29 16:32:47;;;;;;;;;;;20.90;53.90;;;20.20;54.53;100462.91;12130143;19;19936;-83
2023/08/29 16:36:48;;;;;;;;;;;20.90;53.90;;;19.97;54.50;100419.28;12136115;19;20239;-83
2023/08/29 16:40:52;;;;;;;;;;;20.90;53.90;;;20.22;54.60;100468.03;12134918;19;20451;-84
2023/08/29 16:44:53;;;;;;;;;;;20.90;53.90;;;20.15;54.47;100456.41;12135112;19;19930;-83
2023/08/29 16:48:55;;;;;;;;;;;20.90;53.90;;;20.16;54.44;100461.53;12149128;19;19926;-84
2023/08/29 16:52:56;;;;;;;;;;;20.90;53.90;;;20.22;54.35;100470.69;12145382;19;20272;-82
2023/08/29 16:56:59;;;;;;;;;;;20.90;53.90;;;20.13;54.66;100455.72;12147433;19;20255;-83
2023/08/29 17:01:01;;;;;;;;;;;20.90;54.00;;;20.19;54.57;100463.03;12144927;19;20685;-83
2023/08/29 17:05:03;;;;;;;;;;;20.90;54.30;;;20.13;54.54;100459.19;12147214;19;20211;-83
2023/08/29 17:09:04;;;;;;;;;;;20.90;54.00;;;20.15;54.48;100465.19;12147895;19;19931;-84
2023/08/29 17:13:08;;;;;;;;;;;20.90;54.10;;;19.95;54.65;100427.38;12142807;19;19959;-84
2023/08/29 17:17:11;;;;;;;;;;;20.90;54.50;;;20.01;54.64;100436.53;12142908;19;20279;-84
2023/08/29 17:21:13;;;;;;;;;;;20.80;54.10;;;20.07;54.46;100446.56;12144821;19;20179;-84
2023/08/29 17:25:14;;;;;;;;;;;20.80;54.10;;;20.08;54.40;100443.72;12143159;19;19927;-84
2023/08/29 17:29:18;;;;;;;;;;;20.80;54.10;;;20.04;54.44;100436.25;12144084;19;20373;-84
2023/08/29 17:33:20;;;;;;;;;;;20.80;54.20;;;20.07;54.57;100452.69;12133629;19;19926;-84
2023/08/29 17:37:21;;;;;;;;;;;20.80;54.30;;;19.98;54.71;100448.31;12144901;19;20447;-84
2023/08/29 17:41:25;;;;;;;;;;;20.70;54.10;;;19.88;54.88;100443.06;12121930;19;19940;-84
2023/08/29 17:45:27;;;;;;;;;;;20.70;54.10;;;19.91;54.62;100467.63;12142912;19;20294;-84
2023/08/29 17:49:29;;;;;;;;;;;20.60;54.40;;;19.79;54.68;100453.72;12140547;19;19927;-85
2023/08/29 17:53:30;;;;;;;;;;;20.60;54.30;;;19.78;54.48;100460.03;12142385;19;20290;-84
2023/08/29 17:57:32;;;;;;;;;;;20.50;54.50;;;19.69;54.52;100453.00;12140453;19;20257;-84
2023/08/29 18:01:33;;;;;;;;;;;20.50;54.50;;;19.66;54.95;100465.56;12141636;19;20393;-84
2023/08/29 18:05:35;;;;;;;;;;;20.40;54.60;;;19.63;54.86;100462.31;12139973;19;19919;-84
2023/08/29 18:09:36;;;;;;;;;;;20.40;55.00;;;19.53;54.77;100461.56;12139720;19;19926;-84
2023/08/29 18:13:38;;;;;;;;;;;20.30;54.60;;;19.48;54.53;100463.84;12143760;19;20243;-84